sensor_id;sensor_type;location;lat;lon;timestamp;temperature;humidity
1992;DHT22;997;48.448;8.924;2023-07-20T03:03:45;19.20;99.90
1992;DHT22;997;48.448;8.924;2023-07-20T03:06:16;19.20;99.90
1992;DHT22;997;48.448;8.924;2023-07-20T03:08:45;19.20;99.90
1992;DHT22;997;48.448;8.924;2023-07-20T03:11:13;19.10;99.90
1992;DHT22;997;48.448;8.924;2023-07-20T03:13:41;19.00;99.90
1992;DHT22;997;48.448;8.924;2023-07-20T09:28:55;24.10;99.90
1992;DHT22;997;48.448;8.924;2023-07-20T09:31:22;24.00;99.90
1992;DHT22;997;48.448;8.924;2023-07-20T09:33:49;23.80;99.90
1992;DHT22;997;48.448;8.924;2023-07-20T09:36:17;23.60;99.50
1992;DHT22;997;48.448;8.924;2023-07-20T09:38:43;23.60;99.30
1992;DHT22;997;48.448;8.924;2023-07-20T09:41:13;23.60;99.30
1992;DHT22;997;48.448;8.924;2023-07-20T09:43:41;23.80;99.30
1992;DHT22;997;48.448;8.924;2023-07-20T09:46:07;23.90;99.30
1992;DHT22;997;48.448;8.924;2023-07-20T09:48:32;24.00;99.00
1992;DHT22;997;48.448;8.924;2023-07-20T09:50:58;24.10;98.40
1992;DHT22;997;48.448;8.924;2023-07-20T09:53:25;24.20;97.60
1992;DHT22;997;48.448;8.924;2023-07-20T09:55:52;24.20;98.80
1992;DHT22;997;48.448;8.924;2023-07-20T09:58:18;24.50;97.50
1992;DHT22;997;48.448;8.924;2023-07-20T10:00:45;24.50;95.10
1992;DHT22;997;48.448;8.924;2023-07-20T10:03:16;24.50;95.50
1992;DHT22;997;48.448;8.924;2023-07-20T10:05:52;24.50;94.70
1992;DHT22;997;48.448;8.924;2023-07-20T10:08:19;24.30;94.30
1992;DHT22;997;48.448;8.924;2023-07-20T10:10:47;24.20;94.70
1992;DHT22;997;48.448;8.924;2023-07-20T10:13:26;24.20;93.70
1992;DHT22;997;48.448;8.924;2023-07-20T10:15:54;24.30;93.30
1992;DHT22;997;48.448;8.924;2023-07-20T10:18:46;24.20;93.50
1992;DHT22;997;48.448;8.924;2023-07-20T10:21:17;24.40;93.20
1992;DHT22;997;48.448;8.924;2023-07-20T10:23:45;24.60;93.20
1992;DHT22;997;48.448;8.924;2023-07-20T10:26:11;24.90;94.50
1992;DHT22;997;48.448;8.924;2023-07-20T10:28:38;25.10;93.70
1992;DHT22;997;48.448;8.924;2023-07-20T10:31:09;25.00;92.10
1992;DHT22;997;48.448;8.924;2023-07-20T10:33:37;24.90;93.00
1992;DHT22;997;48.448;8.924;2023-07-20T10:36:04;24.90;91.70
1992;DHT22;997;48.448;8.924;2023-07-20T10:43:45;24.70;92.10
1992;DHT22;997;48.448;8.924;2023-07-20T10:46:12;24.90;92.00
1992;DHT22;997;48.448;8.924;2023-07-20T10:49:01;25.00;91.00
1992;DHT22;997;48.448;8.924;2023-07-20T10:51:28;25.00;91.80
1992;DHT22;997;48.448;8.924;2023-07-20T10:53:57;25.20;91.20
1992;DHT22;997;48.448;8.924;2023-07-20T10:56:26;25.60;90.90
1992;DHT22;997;48.448;8.924;2023-07-20T10:59:00;25.80;91.60
1992;DHT22;997;48.448;8.924;2023-07-20T11:01:31;25.80;87.70
1992;DHT22;997;48.448;8.924;2023-07-20T11:03:59;25.70;86.60
1992;DHT22;997;48.448;8.924;2023-07-20T11:06:29;25.70;85.90
1992;DHT22;997;48.448;8.924;2023-07-20T11:09:15;25.80;86.80
1992;DHT22;997;48.448;8.924;2023-07-20T11:11:48;26.00;87.50
1992;DHT22;997;48.448;8.924;2023-07-20T11:14:24;25.90;86.40
1992;DHT22;997;48.448;8.924;2023-07-20T11:16:51;26.00;86.30
1992;DHT22;997;48.448;8.924;2023-07-20T11:19:19;26.00;85.50
1992;DHT22;997;48.448;8.924;2023-07-20T11:21:47;25.90;85.60
1992;DHT22;997;48.448;8.924;2023-07-20T11:24:15;25.90;85.10
1992;DHT22;997;48.448;8.924;2023-07-20T11:26:43;25.80;82.40
1992;DHT22;997;48.448;8.924;2023-07-20T11:29:09;25.80;86.10
1992;DHT22;997;48.448;8.924;2023-07-20T11:31:42;26.00;86.30
1992;DHT22;997;48.448;8.924;2023-07-20T11:34:11;26.00;81.00
1992;DHT22;997;48.448;8.924;2023-07-20T11:36:42;26.10;81.70
1992;DHT22;997;48.448;8.924;2023-07-20T11:39:12;26.10;80.70
1992;DHT22;997;48.448;8.924;2023-07-20T11:41:38;26.10;81.90
1992;DHT22;997;48.448;8.924;2023-07-20T11:44:06;26.10;82.50
1992;DHT22;997;48.448;8.924;2023-07-20T11:46:33;26.30;80.80
1992;DHT22;997;48.448;8.924;2023-07-20T11:49:00;26.40;81.70
1992;DHT22;997;48.448;8.924;2023-07-20T11:51:30;26.60;79.60
1992;DHT22;997;48.448;8.924;2023-07-20T11:53:57;26.50;76.60
1992;DHT22;997;48.448;8.924;2023-07-20T11:56:24;26.20;73.80
1992;DHT22;997;48.448;8.924;2023-07-20T11:58:50;26.20;76.90
1992;DHT22;997;48.448;8.924;2023-07-20T12:01:17;26.20;79.10
1992;DHT22;997;48.448;8.924;2023-07-20T12:03:43;26.20;76.60
1992;DHT22;997;48.448;8.924;2023-07-20T12:06:10;26.50;74.50
1992;DHT22;997;48.448;8.924;2023-07-20T12:08:43;26.60;75.80
1992;DHT22;997;48.448;8.924;2023-07-20T12:11:10;26.70;75.40
1992;DHT22;997;48.448;8.924;2023-07-20T12:13:42;26.70;73.70
1992;DHT22;997;48.448;8.924;2023-07-20T12:16:16;26.70;76.10
1992;DHT22;997;48.448;8.924;2023-07-20T12:18:45;26.80;74.50
1992;DHT22;997;48.448;8.924;2023-07-20T12:21:11;26.90;75.60
1992;DHT22;997;48.448;8.924;2023-07-20T12:23:39;26.90;75.60
1992;DHT22;997;48.448;8.924;2023-07-20T12:26:09;26.40;74.10
1992;DHT22;997;48.448;8.924;2023-07-20T12:28:42;26.40;75.50
1992;DHT22;997;48.448;8.924;2023-07-20T12:31:10;26.50;76.00
1992;DHT22;997;48.448;8.924;2023-07-20T12:33:37;26.60;74.30
1992;DHT22;997;48.448;8.924;2023-07-20T12:36:03;26.70;75.80
1992;DHT22;997;48.448;8.924;2023-07-20T12:38:29;26.80;74.40
1992;DHT22;997;48.448;8.924;2023-07-20T12:40:57;26.80;73.80
1992;DHT22;997;48.448;8.924;2023-07-20T12:43:23;27.00;72.70
1992;DHT22;997;48.448;8.924;2023-07-20T12:45:49;27.10;70.00
1992;DHT22;997;48.448;8.924;2023-07-20T12:48:15;27.30;73.30
1992;DHT22;997;48.448;8.924;2023-07-20T12:50:41;27.40;69.60
1992;DHT22;997;48.448;8.924;2023-07-20T12:53:08;27.40;70.60
1992;DHT22;997;48.448;8.924;2023-07-20T12:55:34;27.60;71.40
1992;DHT22;997;48.448;8.924;2023-07-20T12:58:00;27.70;68.80
1992;DHT22;997;48.448;8.924;2023-07-20T13:00:25;27.40;67.00
1992;DHT22;997;48.448;8.924;2023-07-20T13:02:51;27.40;64.60
1992;DHT22;997;48.448;8.924;2023-07-20T13:05:17;27.40;67.40
1992;DHT22;997;48.448;8.924;2023-07-20T13:07:43;27.40;66.00
1992;DHT22;997;48.448;8.924;2023-07-20T13:10:10;27.60;65.50
1992;DHT22;997;48.448;8.924;2023-07-20T13:12:36;27.70;67.50
1992;DHT22;997;48.448;8.924;2023-07-20T13:15:04;27.90;66.60
1992;DHT22;997;48.448;8.924;2023-07-20T13:17:47;28.00;66.10
1992;DHT22;997;48.448;8.924;2023-07-20T13:20:23;28.10;66.30
1992;DHT22;997;48.448;8.924;2023-07-20T13:22:49;27.90;65.20
1992;DHT22;997;48.448;8.924;2023-07-20T13:25:15;27.90;64.60
1992;DHT22;997;48.448;8.924;2023-07-20T13:27:40;28.10;66.30
1992;DHT22;997;48.448;8.924;2023-07-20T13:30:07;28.20;65.80
1992;DHT22;997;48.448;8.924;2023-07-20T13:32:39;28.30;64.50
1992;DHT22;997;48.448;8.924;2023-07-20T13:35:12;28.50;63.30
1992;DHT22;997;48.448;8.924;2023-07-20T13:37:38;28.70;64.70
1992;DHT22;997;48.448;8.924;2023-07-20T13:40:05;29.00;64.70
1992;DHT22;997;48.448;8.924;2023-07-20T13:42:32;29.10;62.70
1992;DHT22;997;48.448;8.924;2023-07-20T13:44:58;29.40;63.70
1992;DHT22;997;48.448;8.924;2023-07-20T13:47:24;29.70;63.30
1992;DHT22;997;48.448;8.924;2023-07-20T13:49:53;29.70;62.30
1992;DHT22;997;48.448;8.924;2023-07-20T13:52:34;29.80;61.80
1992;DHT22;997;48.448;8.924;2023-07-20T13:55:00;29.40;59.30
1992;DHT22;997;48.448;8.924;2023-07-20T13:57:26;29.10;59.30
1992;DHT22;997;48.448;8.924;2023-07-20T13:59:52;29.00;61.20
1992;DHT22;997;48.448;8.924;2023-07-20T14:02:22;29.00;61.00
1992;DHT22;997;48.448;8.924;2023-07-20T14:04:51;29.20;62.60
1992;DHT22;997;48.448;8.924;2023-07-20T14:07:20;29.00;61.00
1992;DHT22;997;48.448;8.924;2023-07-20T14:09:47;28.90;60.40
1992;DHT22;997;48.448;8.924;2023-07-20T14:12:12;29.20;59.50
1992;DHT22;997;48.448;8.924;2023-07-20T14:14:40;29.50;61.00
1992;DHT22;997;48.448;8.924;2023-07-20T14:17:07;29.90;60.20
1992;DHT22;997;48.448;8.924;2023-07-20T14:19:37;30.20;60.10
1992;DHT22;997;48.448;8.924;2023-07-20T14:22:03;30.00;58.00
1992;DHT22;997;48.448;8.924;2023-07-20T14:24:32;30.00;59.40
1992;DHT22;997;48.448;8.924;2023-07-20T14:27:05;29.90;57.50
1992;DHT22;997;48.448;8.924;2023-07-20T14:29:34;30.10;59.30
1992;DHT22;997;48.448;8.924;2023-07-20T14:32:02;30.10;59.60
1992;DHT22;997;48.448;8.924;2023-07-20T19:35:46;23.70;61.20
1992;DHT22;997;48.448;8.924;2023-07-20T19:38:12;23.70;61.40
1992;DHT22;997;48.448;8.924;2023-07-20T19:40:38;23.70;60.80
1992;DHT22;997;48.448;8.924;2023-07-20T19:43:04;23.70;61.10
1992;DHT22;997;48.448;8.924;2023-07-20T19:45:32;23.70;61.40
1992;DHT22;997;48.448;8.924;2023-07-20T19:48:00;23.70;61.70
1992;DHT22;997;48.448;8.924;2023-07-20T19:50:27;23.60;61.30
1992;DHT22;997;48.448;8.924;2023-07-20T19:52:52;23.60;61.60
1992;DHT22;997;48.448;8.924;2023-07-20T19:55:18;23.60;61.60
1992;DHT22;997;48.448;8.924;2023-07-20T19:57:45;23.60;62.10
1992;DHT22;997;48.448;8.924;2023-07-20T20:00:11;23.60;61.90
1992;DHT22;997;48.448;8.924;2023-07-20T20:02:39;23.60;61.90
1992;DHT22;997;48.448;8.924;2023-07-20T20:05:06;23.60;62.60
1992;DHT22;997;48.448;8.924;2023-07-20T20:07:34;23.60;62.30
1992;DHT22;997;48.448;8.924;2023-07-20T20:10:03;23.60;62.60
1992;DHT22;997;48.448;8.924;2023-07-20T20:12:32;23.60;63.00
1992;DHT22;997;48.448;8.924;2023-07-20T20:14:57;23.60;63.10
1992;DHT22;997;48.448;8.924;2023-07-20T20:17:23;23.50;63.60
1992;DHT22;997;48.448;8.924;2023-07-20T20:19:49;23.50;63.90
1992;DHT22;997;48.448;8.924;2023-07-20T20:22:16;23.50;64.70
1992;DHT22;997;48.448;8.924;2023-07-20T20:24:41;23.50;65.10
1992;DHT22;997;48.448;8.924;2023-07-20T20:27:07;23.40;64.50
1992;DHT22;997;48.448;8.924;2023-07-20T20:29:33;23.40;64.60
1992;DHT22;997;48.448;8.924;2023-07-20T20:32:04;23.30;64.40
1992;DHT22;997;48.448;8.924;2023-07-20T20:34:30;23.30;64.50
1992;DHT22;997;48.448;8.924;2023-07-20T20:36:56;23.30;64.50
1992;DHT22;997;48.448;8.924;2023-07-20T20:39:26;23.20;64.80
1992;DHT22;997;48.448;8.924;2023-07-20T20:41:51;23.30;64.80
1992;DHT22;997;48.448;8.924;2023-07-20T20:44:18;23.30;65.00
1992;DHT22;997;48.448;8.924;2023-07-20T20:46:51;23.20;65.70
1992;DHT22;997;48.448;8.924;2023-07-20T20:49:26;23.20;65.50
1992;DHT22;997;48.448;8.924;2023-07-20T20:51:52;23.20;66.10
1992;DHT22;997;48.448;8.924;2023-07-20T20:54:19;23.20;64.40
1992;DHT22;997;48.448;8.924;2023-07-20T20:56:45;23.20;65.10
1992;DHT22;997;48.448;8.924;2023-07-20T20:59:10;23.20;64.90
1992;DHT22;997;48.448;8.924;2023-07-20T21:01:36;23.20;65.00
1992;DHT22;997;48.448;8.924;2023-07-20T21:04:02;23.20;65.30
1992;DHT22;997;48.448;8.924;2023-07-20T21:06:27;23.10;65.40
1992;DHT22;997;48.448;8.924;2023-07-20T21:08:53;23.00;70.70
1992;DHT22;997;48.448;8.924;2023-07-20T21:11:19;22.90;72.40
1992;DHT22;997;48.448;8.924;2023-07-20T21:13:44;22.70;71.90
1992;DHT22;997;48.448;8.924;2023-07-20T21:16:10;22.60;72.10
1992;DHT22;997;48.448;8.924;2023-07-20T21:18:36;22.50;72.50
1992;DHT22;997;48.448;8.924;2023-07-20T21:21:02;22.40;71.90
1992;DHT22;997;48.448;8.924;2023-07-20T21:23:28;22.40;72.10
1992;DHT22;997;48.448;8.924;2023-07-20T21:25:54;22.30;71.60
1992;DHT22;997;48.448;8.924;2023-07-20T21:28:20;22.20;72.20
